This is the latest recevied weather packets stored in our database for station/object OE5XFR. If no packets are shown the sender has not sent any weather packets the latest 10 day(s).
| Time | Temp. | Humidity | Pressure | Rain* | Wind** | Luminosity | Snow |
|---|---|---|---|---|---|---|---|
| 1777866316 | 15° C | 47% | 1016 hPa | 0 mm | - | - | - |
| 1777865596 | 15° C | 46% | 1016 hPa | 0 mm | - | - | - |
| 1777864876 | 15° C | 45% | 1016 hPa | 0 mm | - | - | - |
| 1777864156 | 15.56° C | 44% | 1016 hPa | 0 mm | - | - | - |
| 1777863435 | 15.56° C | 42% | 1016 hPa | 0 mm | - | - | - |
| 1777862715 | 15.56° C | 42% | 1016 hPa | 0 mm | - | - | - |
| 1777861995 | 16.11° C | 41% | 1016 hPa | 0 mm | - | - | - |
| 1777861275 | 16.11° C | 41% | 1016 hPa | 0 mm | - | - | - |
| 1777860555 | 15.56° C | 41% | 1015 hPa | 0 mm | - | - | - |
| 1777859835 | 16.11° C | 41% | 1015 hPa | 0 mm | - | - | - |
| 1777859114 | 16.11° C | 41% | 1015 hPa | 0 mm | - | - | - |
| 1777858395 | 16.67° C | 37% | 1015 hPa | 0 mm | - | - | - |
| 1777857676 | 16.67° C | 37% | 1015 hPa | 0 mm | - | - | - |
| 1777856956 | 17.22° C | 36% | 1015 hPa | 0 mm | - | - | - |
| 1777856235 | 17.78° C | 34% | 1015 hPa | 0 mm | - | - | - |
| 1777855515 | 17.78° C | 34% | 1015 hPa | 0 mm | - | - | - |
| 1777854795 | 18.33° C | 31% | 1015 hPa | 0 mm | - | - | - |
| 1777854075 | 18.33° C | 31% | 1015 hPa | 0 mm | - | - | - |
| 1777853356 | 18.33° C | 29% | 1014 hPa | 0 mm | - | - | - |
| 1777852635 | 18.33° C | 30% | 1014 hPa | 0 mm | - | - | - |
| 1777851915 | 18.33° C | 30% | 1014 hPa | 0 mm | - | - | - |
| 1777851195 | 18.33° C | 31% | 1014 hPa | 0 mm | - | - | - |
| 1777850476 | 17.78° C | 33% | 1014 hPa | 0 mm | - | - | - |
| 1777849755 | 16.67° C | 38% | 1014 hPa | 0 mm | - | - | - |
| 1777849036 | 15.56° C | 41% | 1014 hPa | 0 mm | - | - | - |
* Rain latest hour (hover to see other rain measurements)
** Current wind speed in m/s (hover to see current wind gust speed)